Time;durP1;ratioP1;P1;durP2;ratioP2;P2;SDS_P1;SDS_P2;PMS_P1;PMS_P2;Temp;Humidity;BMP_temperature;BMP_pressure;BME280_temperature;BME280_humidity;BME280_pressure;Samples;Min_cycle;Max_cycle;Signal;HPM_P1;HPM_P2
2023/10/10 00:00:55;;;;;;;8.30;4.22;;;;;;;;;;5072128;28;20550;-63
2023/10/10 00:03:23;;;;;;;8.57;4.32;;;;;;;;;;5072086;28;20717;-63
2023/10/10 00:05:49;;;;;;;11.75;4.00;;;;;;;;;;5072566;28;20063;-63
2023/10/10 00:08:20;;;;;;;10.73;4.60;;;;;;;;;;5087017;28;20036;-63
2023/10/10 00:10:50;;;;;;;8.60;3.83;;;;;;;;;;5076331;28;20052;-63
2023/10/10 00:13:17;;;;;;;11.55;4.22;;;;;;;;;;5090648;28;20066;-63
2023/10/10 00:15:51;;;;;;;12.43;4.20;;;;;;;;;;5091755;28;20592;-63
2023/10/10 00:18:18;;;;;;;12.27;3.60;;;;;;;;;;5091399;28;20510;-62
2023/10/10 00:21:04;;;;;;;7.65;4.20;;;;;;;;;;5092609;28;20055;-63
2023/10/10 00:23:33;;;;;;;9.25;3.70;;;;;;;;;;5089949;28;20131;-63
2023/10/10 00:26:00;;;;;;;11.45;3.40;;;;;;;;;;5092520;28;20048;-63
2023/10/10 00:28:27;;;;;;;9.80;3.40;;;;;;;;;;5090278;28;20488;-63
2023/10/10 00:30:54;;;;;;;8.98;3.53;;;;;;;;;;5091374;28;20044;-63
2023/10/10 00:33:20;;;;;;;6.30;3.05;;;;;;;;;;5091845;28;20411;-62
2023/10/10 00:35:47;;;;;;;7.97;3.75;;;;;;;;;;5093249;28;20097;-63
2023/10/10 00:38:24;;;;;;;5.93;3.03;;;;;;;;;;5077494;28;20055;-63
2023/10/10 00:40:50;;;;;;;5.47;3.42;;;;;;;;;;5092804;28;20048;-63
2023/10/10 00:43:16;;;;;;;9.25;3.25;;;;;;;;;;5085456;28;20075;-62
2023/10/10 00:45:52;;;;;;;6.75;2.85;;;;;;;;;;5076175;28;20394;-63
2023/10/10 00:48:21;;;;;;;7.20;3.17;;;;;;;;;;5075682;28;20056;-63
2023/10/10 00:50:51;;;;;;;8.75;3.15;;;;;;;;;;5118672;27;20055;-63
2023/10/10 00:53:21;;;;;;;5.00;3.20;;;;;;;;;;5094651;28;20395;-62
2023/10/10 00:55:55;;;;;;;5.75;2.80;;;;;;;;;;5094231;28;20047;-62
2023/10/10 00:58:22;;;;;;;5.80;3.08;;;;;;;;;;5113735;28;20407;-63
2023/10/10 01:00:52;;;;;;;8.52;3.30;;;;;;;;;;5114973;28;20055;-62
2023/10/10 01:03:21;;;;;;;10.13;3.65;;;;;;;;;;5092599;28;20044;-62
2023/10/10 01:05:55;;;;;;;9.85;2.97;;;;;;;;;;5075537;28;20061;-62
2023/10/10 01:08:26;;;;;;;7.70;3.33;;;;;;;;;;5092203;28;20051;-63
2023/10/10 01:10:56;;;;;;;7.55;3.40;;;;;;;;;;5091981;28;20051;-62
2023/10/10 01:13:22;;;;;;;10.10;3.55;;;;;;;;;;5113266;28;20149;-63
2023/10/10 01:15:48;;;;;;;7.30;3.75;;;;;;;;;;5115078;28;20052;-63
2023/10/10 01:18:15;;;;;;;14.55;5.03;;;;;;;;;;5091112;28;20357;-63
2023/10/10 01:20:55;;;;;;;11.10;4.40;;;;;;;;;;5104799;28;20122;-63
2023/10/10 01:23:27;;;;;;;;;;;;;;;;;;5094588;28;20209;-64
2023/10/10 01:25:56;;;;;;;8.73;4.00;;;;;;;;;;5074762;28;19951;-63
2023/10/10 01:28:33;;;;;;;8.43;3.88;;;;;;;;;;5107481;28;20052;-63
2023/10/10 01:31:10;;;;;;;10.18;5.28;;;;;;;;;;5075146;28;20080;-63
2023/10/10 01:33:36;;;;;;;11.25;5.10;;;;;;;;;;5079471;28;20515;-62
2023/10/10 01:36:12;;;;;;;12.25;4.55;;;;;;;;;;5094615;28;20052;-64
2023/10/10 01:38:41;;;;;;;8.90;4.90;;;;;;;;;;5095383;28;20051;-62
2023/10/10 01:41:22;;;;;;;13.60;5.85;;;;;;;;;;5094747;28;20565;-63
2023/10/10 01:43:53;;;;;;;17.55;6.65;;;;;;;;;;5093554;28;20123;-62
2023/10/10 01:46:27;;;;;;;;;;;15.70;99.90;;;;;;5095328;28;20400;-63
2023/10/10 01:49:01;;;;;;;10.13;6.20;;;;;;;;;;5093330;28;20012;-62
2023/10/10 01:51:33;;;;;;;11.63;5.40;;;;;;;;;;5090331;28;20428;-62
2023/10/10 01:54:12;;;;;;;17.40;6.20;;;;;;;;;;5091852;28;20056;-62
2023/10/10 01:56:38;;;;;;;11.90;6.18;;;;;;;;;;5088605;28;20130;-63
2023/10/10 01:59:06;;;;;;;13.45;6.93;;;;;;;;;;5115038;28;20058;-63
2023/10/10 02:01:32;;;;;;;11.32;6.68;;;;;;;;;;5110209;28;20040;-63
2023/10/10 02:03:58;;;;;;;14.57;7.32;;;;;;;;;;5095038;28;20127;-63
2023/10/10 02:06:26;;;;;;;12.07;6.72;;;;;;;;;;5099065;28;20052;-63
2023/10/10 02:09:00;;;;;;;11.45;6.63;;;;;;;;;;5097642;28;20135;-62
2023/10/10 02:11:31;;;;;;;17.58;8.70;;;;;;;;;;5093567;28;20062;-62
2023/10/10 02:13:58;;;;;;;18.48;7.20;;;;;;;;;;5094691;28;20087;-62
2023/10/10 02:16:34;;;;;;;14.27;6.90;;;;;;;;;;5093408;28;20492;-62
2023/10/10 02:19:12;;;;;;;13.40;6.03;;;;;;;;;;5094402;28;20050;-62
2023/10/10 02:21:47;;;;;;;11.93;6.88;;;;;;;;;;5102156;28;20492;-62
2023/10/10 02:24:38;;;;;;;16.15;7.45;;;;;;;;;;5093288;28;20048;-62
2023/10/10 02:27:06;;;;;;;17.42;7.13;;;;;;;;;;5093483;28;20120;-63
2023/10/10 02:35:16;;;;;;;17.70;8.15;;;;;;;;;;5071145;28;20502;-62
2023/10/10 02:40:30;;;;;;;16.80;8.60;;;;;;;;;;5088401;28;20419;-62
2023/10/10 02:45:45;;;;;;;17.92;10.10;;;;;;;;;;5010336;28;20049;-62
2023/10/10 02:48:20;;;;;;;19.52;10.30;;;;;;;;;;5014211;28;20077;-63
2023/10/10 02:50:46;;;;;;;21.15;10.32;;;;;;;;;;5031667;28;20600;-63
2023/10/10 02:53:14;;;;;;;22.02;11.65;;;;;;;;;;5013866;28;20062;-63
2023/10/10 02:55:41;;;;;;;20.15;11.52;;;;;;;;;;5030191;28;20395;-62
2023/10/10 02:58:22;;;;;;;24.77;12.05;;;;;;;;;;5031128;28;20584;-63
2023/10/10 03:00:52;;;;;;;22.10;11.88;;;;;;;;;;5031292;28;20053;-62
2023/10/10 03:03:18;;;;;;;27.02;13.70;;;;;;;;;;5013561;28;20501;-62
2023/10/10 03:05:50;;;;;;;30.88;14.45;;;;;;;;;;5014657;28;20053;-62
2023/10/10 03:08:18;;;;;;;30.42;14.32;;;;;;;;;;5011821;28;20205;-63
2023/10/10 03:10:54;;;;;;;26.33;14.95;;;;;;;;;;5011632;28;20112;-62
2023/10/10 03:29:20;;;;;;;28.38;15.38;;;;;;;;;;5094393;28;20048;-63
2023/10/10 03:31:48;;;;;;;24.90;13.00;;;;;;;;;;5092714;28;20040;-62
2023/10/10 03:37:08;;;;;;;24.38;13.60;;;;;;;;;;5092583;28;20040;-62
2023/10/10 05:24:08;;;;;;;43.67;22.48;;;;;;;;;;5014043;28;20136;-65
2023/10/10 05:26:45;;;;;;;48.63;22.83;;;;;;;;;;5021440;28;20502;-62
2023/10/10 05:29:12;;;;;;;41.53;22.33;;;;;;;;;;5007098;28;20054;-63
2023/10/10 05:31:38;;;;;;;43.65;20.98;;;;;;;;;;5095350;28;20515;-62
2023/10/10 05:34:04;;;;;;;46.10;21.30;;;;;;;;;;5112273;28;20039;-63
2023/10/10 05:36:31;;;;;;;44.30;22.65;;;;;;;;;;5083423;28;20089;-62
2023/10/10 05:38:57;;;;;;;44.72;22.88;;;;;;;;;;5103018;28;20126;-62
2023/10/10 05:41:24;;;;;;;40.70;20.73;;;;;;;;;;5079247;28;20048;-62
2023/10/10 05:43:50;;;;;;;39.05;21.02;;;;;;;;;;5086248;28;20041;-62
2023/10/10 05:46:16;;;;;;;43.25;20.95;;;;;;;;;;5078540;28;20052;-62
2023/10/10 05:48:42;;;;;;;43.17;20.58;;;;;;;;;;5105803;27;20039;-62
2023/10/10 05:51:09;;;;;;;40.53;21.58;;;;;;;;;;5077377;28;20097;-63
2023/10/10 05:53:35;;;;;;;39.28;21.40;;;;;;;;;;5087670;28;20488;-63
2023/10/10 05:56:12;;;;;;;48.17;22.83;;;;;;;;;;5082419;28;20059;-62
2023/10/10 05:58:45;;;;;;;46.28;22.65;;;;;;;;;;5093871;28;20052;-62
2023/10/10 06:01:12;;;;;;;46.08;21.08;;;;;;;;;;5092868;28;20457;-62
2023/10/10 06:03:41;;;;;;;47.08;23.10;;;;;;;;;;5087699;28;20048;-62
2023/10/10 06:06:12;;;;;;;45.40;22.15;;;;;;;;;;5098365;28;20139;-64
2023/10/10 06:08:41;;;;;;;42.42;20.88;;;;;;;;;;5081121;28;20094;-63
2023/10/10 06:11:08;;;;;;;48.70;22.95;;;;;;;;;;5110860;28;20056;-62
2023/10/10 06:13:39;;;;;;;44.33;22.52;;;;;;;;;;5113756;28;20044;-62
2023/10/10 06:16:15;;;;;;;46.13;22.05;;;;;;;;;;5087131;28;20078;-64
2023/10/10 06:18:42;;;;;;;49.85;23.20;;;;;;;;;;5100307;28;20114;-64
2023/10/10 06:21:09;;;;;;;43.47;21.70;;;;;;;;;;5114472;28;20119;-63
2023/10/10 06:23:35;;;;;;;38.78;20.98;;;;;;;;;;5094018;28;20124;-64
2023/10/10 06:26:06;;;;;;;44.10;22.25;;;;;;;;;;5110933;28;20048;-63
2023/10/10 06:28:35;;;;;;;48.35;23.15;;;;;;;;;;5114745;28;20181;-62
2023/10/10 06:31:03;;;;;;;46.45;22.45;;;;;;;;;;5109495;28;20079;-64
2023/10/10 06:33:29;;;;;;;50.80;23.38;;;;;;;;;;5086652;28;20059;-63
2023/10/10 06:41:38;;;;;;;47.70;23.85;;;;;;;;;;5081870;28;20048;-62
2023/10/10 06:44:05;;;;;;;53.78;26.38;;;;;;;;;;5096335;28;20044;-63
2023/10/10 06:46:37;;;;;;;58.70;28.40;;;;;;;;;;5097074;28;20508;-63
2023/10/10 06:49:06;;;;;;;55.20;27.08;;;;;;;;;;5114143;28;20051;-63
2023/10/10 06:51:33;;;;;;;58.58;28.27;;;;;;;;;;5114206;28;20100;-62
2023/10/10 06:54:03;;;;;;;61.30;28.83;;;;;;;;;;5103455;28;20073;-62
2023/10/10 06:56:44;;;;;;;60.38;27.48;;;;;;;;;;5094185;28;20483;-62
2023/10/10 06:59:16;;;;;;;63.13;29.40;;;;;;;;;;5097918;28;20130;-63
2023/10/10 07:01:45;;;;;;;60.88;30.42;;;;;;;;;;5107226;28;20043;-62
2023/10/10 07:04:13;;;;;;;63.10;30.80;;;;;;;;;;5104480;28;20039;-62
2023/10/10 07:06:43;;;;;;;61.22;29.77;;;;;;;;;;5107501;28;20062;-62
2023/10/10 07:09:14;;;;;;;;;;;15.20;99.90;;;;;;5097685;28;20617;-62
2023/10/10 07:11:44;;;;;;;58.47;30.05;;;;;;;;;;5093859;28;19934;-62
2023/10/10 07:14:10;;;;;;;74.97;35.33;;;;;;;;;;5096421;28;20052;-63
2023/10/10 07:16:42;;;;;;;70.32;35.92;;;;;;;;;;5093462;28;20047;-62
2023/10/10 07:19:19;;;;;;;82.45;38.38;;;;;;;;;;5111213;28;20044;-63
2023/10/10 07:21:50;;;;;;;78.25;38.30;;;;;;;;;;5107153;28;20572;-62
2023/10/10 07:24:17;;;;;;;87.63;43.85;;;;;;;;;;5106591;28;20070;-62
2023/10/10 07:26:44;;;;;;;83.78;42.08;;;;;;;;;;5095507;28;20043;-62
2023/10/10 07:29:27;;;;;;;107.57;47.50;;;;;;;;;;5113266;28;20055;-62
2023/10/10 07:32:04;;;;;;;108.80;52.20;;;;;;;;;;5099054;28;20058;-62
2023/10/10 07:34:39;;;;;;;119.50;52.40;;;;;;;;;;5099541;28;20048;-62
2023/10/10 07:37:09;;;;;;;120.38;55.35;;;;;;;;;;5101694;28;20052;-63
2023/10/10 07:39:55;;;;;;;106.13;50.70;;;;;;;;;;5092498;28;20055;-63
2023/10/10 07:42:29;;;;;;;114.93;53.50;;;;;;;;;;5109732;28;20059;-62
2023/10/10 07:44:55;;;;;;;113.18;55.83;;;;;;;;;;5096265;28;20051;-62
2023/10/10 07:47:25;;;;;;;103.75;54.28;;;;;;;;;;5092606;28;20415;-63
2023/10/10 07:50:08;;;;;;;109.95;57.45;;;;;;;;;;5090036;28;20056;-62
2023/10/10 07:52:39;;;;;;;104.70;52.45;;;;;;;;;;5099206;28;20162;-64
2023/10/10 07:55:05;;;;;;;106.22;52.95;;;;;;;;;;5108124;28;20043;-63
2023/10/10 07:57:55;;;;;;;91.60;47.72;;;;;;;;;;5112736;28;20040;-62
2023/10/10 08:00:17;;;;;;;95.43;47.53;;;;;;;;;;5097062;28;20135;-61
2023/10/10 08:02:49;;;;;;;90.85;48.92;;;;;;;;;;5071362;28;20055;-62
2023/10/10 08:05:19;;;;;;;88.97;47.10;;;;;;;;;;5097709;28;20052;-62
2023/10/10 08:07:46;;;;;;;85.45;48.30;;;;;;;;;;5104131;28;20048;-62
2023/10/10 08:10:14;;;;;;;83.70;45.30;;;;;;;;;;5098258;28;20495;-63
2023/10/10 08:12:41;;;;;;;82.10;44.58;;;;;;;;;;5076252;28;20113;-62
2023/10/10 08:15:19;;;;;;;92.30;46.60;;;;;;;;;;5088779;28;20047;-62
2023/10/10 08:17:52;;;;;;;97.65;51.17;;;;;;;;;;5098871;28;20044;-62
2023/10/10 08:20:34;;;;;;;108.43;53.60;;;;;;;;;;5095845;28;20055;-62
2023/10/10 08:23:01;;;;;;;108.07;57.30;;;;;;;;;;5074314;28;20118;-63
2023/10/10 08:25:28;;;;;;;97.05;53.15;;;;;;;;;;5100790;28;20126;-62
2023/10/10 08:27:55;;;;;;;82.80;44.67;;;;;;;;;;5093493;28;20040;-62
2023/10/10 08:30:25;;;;;;;79.25;42.67;;;;;;;;;;5100208;28;20050;-62
2023/10/10 08:32:53;;;;;;;76.78;43.22;;;;;;;;;;5112632;28;20100;-63
2023/10/10 08:35:19;;;;;;;75.43;41.50;;;;;;;;;;5101056;28;20090;-62
2023/10/10 08:37:45;;;;;;;76.38;41.72;;;;;;;;;;5086714;28;20040;-63
2023/10/10 08:40:19;;;;;;;70.78;41.17;;;;;;;;;;5077952;28;20124;-63
2023/10/10 08:42:50;;;;;;;66.35;37.13;;;;;;;;;;5072443;28;20051;-63
2023/10/10 08:45:22;;;;;;;74.18;40.92;;;;;;;;;;5087128;28;20055;-63
2023/10/10 08:47:58;;;;;;;70.20;39.17;;;17.50;99.90;;;;;;5092755;28;20119;-62
2023/10/10 08:50:25;;;;;;;69.28;38.13;;;;;;;;;;5097200;28;20539;-62
2023/10/10 08:52:54;;;;;;;62.65;36.13;;;;;;;;;;5112453;28;20104;-62
2023/10/10 08:55:26;;;;;;;62.53;37.90;;;;;;;;;;5100494;28;20056;-62
2023/10/10 08:57:58;;;;;;;67.03;37.22;;;;;;;;;;5091765;28;20492;-63
2023/10/10 09:00:28;;;;;;;61.97;35.40;;;;;;;;;;5111524;28;20057;-62
2023/10/10 09:02:57;;;;;;;58.83;35.08;;;;;;;;;;5105411;28;20055;-63
2023/10/10 09:05:24;;;;;;;66.13;33.70;;;17.60;99.90;;;;;;5097020;28;20098;-64
2023/10/10 09:07:53;;;;;;;66.03;34.22;;;;;;;;;;5095417;28;20340;-63
2023/10/10 09:10:28;;;;;;;61.00;33.95;;;;;;;;;;5095703;28;20044;-63
2023/10/10 09:12:56;;;;;;;59.65;33.85;;;;;;;;;;5094928;28;20048;-63
2023/10/10 09:15:23;;;;;;;61.17;34.28;;;;;;;;;;5091928;28;20122;-63
2023/10/10 09:17:55;;;;;;;57.42;33.10;;;;;;;;;;5094447;28;20067;-64
2023/10/10 09:20:30;;;;;;;53.92;32.25;;;;;;;;;;5107127;28;20082;-64
2023/10/10 09:23:33;;;;;;;57.45;32.00;;;;;;;;;;5125303;27;20039;-64
2023/10/10 09:25:57;;;;;;;55.20;30.50;;;;;;;;;;5072995;28;20511;-63
2023/10/10 09:28:30;;;;;;;55.33;31.20;;;;;;;;;;5109502;28;20410;-62
2023/10/10 09:31:03;;;;;;;53.42;30.45;;;;;;;;;;5092641;28;20488;-62
2023/10/10 09:33:36;;;;;;;50.50;30.83;;;;;;;;;;5080187;28;20396;-62
2023/10/10 09:36:08;;;;;;;54.10;28.50;;;;;;;;;;5104268;28;20051;-62
2023/10/10 09:39:08;;;;;;;48.60;29.08;;;;;;;;;;5093801;28;20046;-62
2023/10/10 09:41:36;;;;;;;47.15;26.00;;;19.10;99.90;;;;;;5087382;28;20055;-62
2023/10/10 09:50:27;;;;;;;45.50;25.75;;;19.30;99.90;;;;;;5074415;28;20075;-63
2023/10/10 09:52:49;;;;;;;43.35;24.90;;;;;;;;;;5093521;28;20066;-62
2023/10/10 09:57:43;;;;;;;39.83;24.55;;;19.70;99.90;;;;;;5094881;28;20089;-62
2023/10/10 10:00:13;;;;;;;40.78;21.80;;;;;;;;;;5092888;28;20040;-62
2023/10/10 10:02:48;;;;;;;39.50;23.73;;;20.20;99.90;;;;;;5093549;28;20040;-62
2023/10/10 10:05:18;;;;;;;38.20;22.70;;;;;;;;;;5110810;28;20051;-62
2023/10/10 10:07:56;;;;;;;36.95;23.40;;;20.00;99.90;;;;;;5094827;28;20051;-62
2023/10/10 10:10:48;;;;;;;37.60;22.73;;;;;;;;;;5092756;28;20087;-62
2023/10/10 10:13:21;;;;;;;34.10;21.15;;;;;;;;;;5092697;28;20060;-62
2023/10/10 10:15:50;;;;;;;37.55;22.00;;;;;;;;;;5096627;28;20476;-62
2023/10/10 10:18:26;;;;;;;32.17;19.73;;;;;;;;;;5114404;28;20387;-62
2023/10/10 10:23:38;;;;;;;34.35;21.17;;;;;;;;;;5093489;28;20492;-62
2023/10/10 10:26:31;;;;;;;35.42;22.08;;;;;;;;;;5093289;28;20496;-63
2023/10/10 10:28:57;;;;;;;34.00;21.55;;;;;;;;;;5081339;28;20127;-62
2023/10/10 10:31:28;;;;;;;31.98;20.80;;;;;;;;;;5094786;28;20434;-63
2023/10/10 10:34:23;;;;;;;32.08;20.35;;;;;;;;;;5114399;28;20062;-62
2023/10/10 10:36:55;;;;;;;33.38;21.10;;;;;;;;;;5094691;28;20040;-62
2023/10/10 10:39:26;;;;;;;30.13;18.25;;;;;;;;;;5093044;28;20047;-64
2023/10/10 10:42:00;;;;;;;30.58;18.90;;;20.70;99.90;;;;;;5102771;28;20079;-69
2023/10/10 10:44:44;;;;;;;30.55;18.15;;;;;;;;;;5090603;28;20044;-63
2023/10/10 10:47:45;;;;;;;32.70;19.42;;;21.20;99.90;;;;;;5090550;28;20048;-61
2023/10/10 10:50:28;;;;;;;35.72;19.38;;;;;;;;;;5089440;28;20070;-57
2023/10/10 10:52:58;;;;;;;34.50;19.63;;;20.90;99.90;;;;;;5085070;28;20124;-57
2023/10/10 10:55:28;;;;;;;33.13;19.50;;;21.00;99.90;;;;;;5088252;28;20503;-56
2023/10/10 10:58:06;;;;;;;33.20;20.38;;;;;;;;;;5093946;28;20115;-57
2023/10/10 11:00:56;;;;;;;32.90;19.23;;;;;;;;;;5093901;28;20591;-57
2023/10/10 11:03:23;;;;;;;29.42;18.67;;;;;;;;;;5093327;28;20407;-57
2023/10/10 11:05:53;;;;;;;33.67;17.88;;;;;;;;;;5092761;28;20051;-57
2023/10/10 11:08:45;;;;;;;31.27;17.08;;;;;;;;;;5093311;28;20044;-57
2023/10/10 11:14:10;;;;;;;31.55;17.58;;;;;;;;;;5091818;28;20044;-57
2023/10/10 11:16:45;;;;;;;27.52;16.95;;;;;;;;;;5098260;28;20162;-57
2023/10/10 11:21:48;;;;;;;24.77;15.88;;;;;;;;;;5093246;28;20047;-56
2023/10/10 11:24:15;;;;;;;33.10;17.67;;;;;;;;;;5091982;28;20127;-57
2023/10/10 11:26:43;;;;;;;30.42;16.80;;;;;;;;;;5080862;28;20055;-56
2023/10/10 11:29:27;;;;;;;28.58;15.85;;;;;;;;;;5104029;27;20407;-57
2023/10/10 11:32:08;;;;;;;29.52;16.38;;;;;;;;;;5090120;28;20132;-57
2023/10/10 11:34:46;;;;;;;31.63;16.35;;;21.30;99.90;;;;;;5090340;28;20040;-57
2023/10/10 11:37:23;;;;;;;27.05;15.27;;;;;;;;;;5091596;28;20046;-56
2023/10/10 11:39:58;;;;;;;27.23;15.82;;;;;;;;;;5092289;28;20385;-57
2023/10/10 11:42:27;;;;;;;29.35;16.80;;;;;;;;;;5088659;28;20047;-57
2023/10/10 11:45:03;;;;;;;26.15;15.65;;;;;;;;;;5090928;28;20040;-56
2023/10/10 11:47:29;;;;;;;33.28;16.70;;;;;;;;;;5091628;28;20040;-57
2023/10/10 11:50:05;;;;;;;29.50;16.85;;;;;;;;;;5092049;28;20040;-57
2023/10/10 11:52:34;;;;;;;27.30;16.23;;;;;;;;;;5088674;28;20097;-56
2023/10/10 11:55:00;;;;;;;27.60;16.63;;;;;;;;;;5091744;28;20287;-56
2023/10/10 11:57:33;;;;;;;27.27;14.90;;;;;;;;;;5087644;28;20036;-56
2023/10/10 11:59:59;;;;;;;25.95;17.63;;;;;;;;;;5090792;28;20044;-56
2023/10/10 12:02:39;;;;;;;24.60;16.73;;;;;;;;;;5090093;28;20082;-57
2023/10/10 12:05:35;;;;;;;;;;;21.50;99.90;;;;;;5087241;28;20056;-57
2023/10/10 12:07:53;;;;;;;28.27;16.58;;;;;;;;;;5089696;28;19935;-57
2023/10/10 12:10:24;;;;;;;27.67;17.38;;;21.80;99.90;;;;;;5090532;28;20040;-57
2023/10/10 12:12:53;;;;;;;;;;;21.60;99.90;;;;;;5090467;28;20040;-57
2023/10/10 12:15:22;;;;;;;28.58;17.92;;;;;;;;;;5089892;28;19989;-57
2023/10/10 12:17:57;;;;;;;32.58;17.92;;;;;;;;;;5090368;28;20048;-56
2023/10/10 12:20:25;;;;;;;27.80;17.95;;;21.60;99.90;;;;;;5090056;28;20084;-57
2023/10/10 12:22:50;;;;;;;33.17;19.38;;;21.20;99.90;;;;;;5088703;28;20048;-57
2023/10/10 12:25:24;;;;;;;31.23;18.90;;;;;;;;;;5088347;28;20044;-56
2023/10/10 12:27:54;;;;;;;32.15;17.35;;;;;;;;;;5090211;28;20046;-57
2023/10/10 12:30:25;;;;;;;34.33;19.23;;;;;;;;;;5091132;28;20040;-56
2023/10/10 12:32:51;;;;;;;36.13;20.80;;;;;;;;;;5089375;28;20047;-57
2023/10/10 12:35:19;;;;;;;32.75;21.05;;;;;;;;;;5090775;28;20412;-57
2023/10/10 12:37:49;;;;;;;30.25;18.35;;;;;;;;;;5096707;28;20040;-57
2023/10/10 12:40:18;;;;;;;34.30;21.20;;;;;;;;;;5096358;28;20093;-57
2023/10/10 12:42:45;;;;;;;32.33;18.83;;;;;;;;;;5095004;28;20126;-57
2023/10/10 12:45:14;;;;;;;35.97;20.80;;;;;;;;;;5096194;28;20122;-57
2023/10/10 12:47:40;;;;;;;33.60;20.88;;;;;;;;;;5093253;28;20047;-57
2023/10/10 12:50:13;;;;;;;32.40;19.17;;;;;;;;;;5092971;28;20047;-57
2023/10/10 12:52:45;;;;;;;33.78;21.95;;;;;;;;;;5095740;28;20075;-57
2023/10/10 12:55:11;;;;;;;36.10;21.02;;;;;;;;;;5094164;28;20067;-57
2023/10/10 12:57:39;;;;;;;35.95;20.60;;;;;;;;;;5094735;28;20178;-57
2023/10/10 13:00:23;;;;;;;36.90;20.58;;;;;;;;;;5095700;28;20051;-59
2023/10/10 13:02:50;;;;;;;32.92;22.40;;;;;;;;;;5093057;28;20552;-57
2023/10/10 13:05:17;;;;;;;36.70;20.98;;;;;;;;;;5095789;28;20044;-57
2023/10/10 13:07:43;;;;;;;37.72;22.13;;;;;;;;;;5096074;28;20090;-57
2023/10/10 13:10:10;;;;;;;37.88;22.55;;;;;;;;;;5093555;28;20481;-57
2023/10/10 13:12:45;;;;;;;33.33;21.30;;;21.40;99.90;;;;;;5095031;28;20122;-57
2023/10/10 13:15:29;;;;;;;36.17;22.33;;;;;;;;;;5088252;28;20044;-57
2023/10/10 13:18:19;;;;;;;32.90;19.30;;;;;;;;;;5111897;28;20046;-57
2023/10/10 13:20:47;;;;;;;36.75;21.52;;;;;;;;;;5106079;28;20052;-57
2023/10/10 13:23:14;;;;;;;38.00;22.73;;;;;;;;;;5091523;28;20523;-57
2023/10/10 13:25:40;;;;;;;36.28;21.92;;;;;;;;;;5091431;28;20182;-57
2023/10/10 13:28:17;;;;;;;34.55;21.33;;;;;;;;;;5093799;28;20036;-57
2023/10/10 13:30:46;;;;;;;34.40;21.73;;;;;;;;;;5094008;28;20048;-57
2023/10/10 13:33:13;;;;;;;39.70;20.93;;;;;;;;;;5087872;28;20054;-57
2023/10/10 13:35:39;;;;;;;29.17;17.55;;;21.10;99.90;;;;;;5105185;28;20464;-57
2023/10/10 13:38:06;;;;;;;32.78;19.92;;;20.90;99.90;;;;;;5106219;28;20458;-57
2023/10/10 13:40:43;;;;;;;31.33;19.88;;;;;;;;;;5100677;28;20094;-56
2023/10/10 13:43:10;;;;;;;33.78;18.85;;;;;;;;;;5079032;28;20098;-57
2023/10/10 13:45:39;;;;;;;34.85;20.00;;;21.00;99.90;;;;;;5089012;28;20076;-57
2023/10/10 13:48:30;;;;;;;34.00;20.35;;;21.10;99.90;;;;;;5083989;28;20039;-57
2023/10/10 13:50:57;;;;;;;36.83;20.42;;;;;;;;;;5086414;28;20082;-57
2023/10/10 13:53:23;;;;;;;31.17;19.10;;;;;;;;;;5093958;28;20483;-57
2023/10/10 13:55:49;;;;;;;30.23;19.00;;;;;;;;;;5093174;28;20052;-57
2023/10/10 13:58:16;;;;;;;31.45;20.52;;;;;;;;;;5093646;28;20044;-57
2023/10/10 14:00:55;;;;;;;32.72;20.05;;;;;;;;;;5085102;28;20055;-57
2023/10/10 14:03:37;;;;;;;32.92;20.15;;;;;;;;;;5085816;28;20165;-57
2023/10/10 14:06:12;;;;;;;34.15;21.90;;;;;;;;;;5085363;28;20134;-57
2023/10/10 14:08:43;;;;;;;31.38;19.95;;;;;;;;;;5093519;28;20051;-57
2023/10/10 14:11:11;;;;;;;30.10;19.15;;;21.40;99.90;;;;;;5062034;28;20135;-57
2023/10/10 14:13:37;;;;;;;29.23;18.92;;;;;;;;;;5085737;28;20081;-57
2023/10/10 14:16:03;;;;;;;32.42;19.40;;;;;;;;;;5091895;28;20446;-57
2023/10/10 14:18:42;;;;;;;31.83;18.38;;;;;;;;;;5092614;28;20529;-57
2023/10/10 14:21:08;;;;;;;29.42;17.23;;;;;;;;;;5075357;28;20493;-57
2023/10/10 14:23:39;;;;;;;31.20;17.60;;;;;;;;;;5086285;28;20056;-57
2023/10/10 14:26:26;;;;;;;31.17;17.50;;;21.40;99.90;;;;;;5092179;28;20066;-57
2023/10/10 14:28:51;;;;;;;34.08;19.60;;;21.10;99.90;;;;;;5083357;28;20476;-57
2023/10/10 14:31:21;;;;;;;34.83;19.00;;;;;;;;;;5091736;28;20081;-57
2023/10/10 14:33:47;;;;;;;35.28;18.67;;;;;;;;;;5074506;28;20085;-57
2023/10/10 14:36:14;;;;;;;27.13;16.95;;;;;;;;;;5102714;28;20131;-57
2023/10/10 14:38:46;;;;;;;29.83;16.17;;;;;;;;;;5076628;28;20491;-57
2023/10/10 14:41:17;;;;;;;26.42;15.68;;;21.20;99.90;;;;;;5085094;28;20109;-57
2023/10/10 14:43:47;;;;;;;;;;;21.40;99.90;;;;;;5075296;28;20454;-57
2023/10/10 14:46:14;;;;;;;27.30;16.35;;;21.20;99.90;;;;;;5091736;28;20406;-57
2023/10/10 14:48:41;;;;;;;29.73;17.42;;;;;;;;;;5091864;28;20482;-57
2023/10/10 14:51:07;;;;;;;27.10;16.48;;;;;;;;;;5089379;28;20055;-57
2023/10/10 14:53:34;;;;;;;25.88;16.98;;;;;;;;;;5090571;28;20117;-59
2023/10/10 14:56:05;;;;;;;25.23;15.85;;;;;;;;;;5107753;28;20122;-62
2023/10/10 14:58:31;;;;;;;;;;;;;;;;;;5112228;28;20055;-62
2023/10/10 15:00:57;;;;;;;29.52;16.90;;;;;;;;;;5092355;28;19920;-62
2023/10/10 15:03:25;;;;;;;25.95;16.00;;;;;;;;;;5101312;28;20071;-62
2023/10/10 15:05:52;;;;;;;27.45;17.15;;;;;;;;;;5088419;28;20066;-62
2023/10/10 15:08:22;;;;;;;28.98;15.80;;;;;;;;;;5090156;28;20044;-62
2023/10/10 15:10:53;;;;;;;31.88;16.45;;;;;;;;;;5090289;28;20437;-62
2023/10/10 15:13:19;;;;;;;24.58;16.30;;;;;;;;;;5090110;28;20093;-62
2023/10/10 15:15:46;;;;;;;30.70;15.68;;;;;;;;;;5091786;28;20058;-62
2023/10/10 15:18:16;;;;;;;28.35;15.88;;;;;;;;;;5092531;28;20060;-62
2023/10/10 15:20:46;;;;;;;;;;;20.70;99.90;;;;;;5073155;28;20083;-62
2023/10/10 15:23:18;;;;;;;24.73;15.05;;;;;;;;;;5071950;28;20080;-63
2023/10/10 15:25:52;;;;;;;31.10;15.70;;;21.00;99.90;;;;;;5078458;28;20052;-62
2023/10/10 15:28:18;;;;;;;29.15;16.02;;;;;;;;;;5083520;28;20119;-62
2023/10/10 15:30:44;;;;;;;24.90;15.13;;;;;;;;;;5092280;28;20184;-62
2023/10/10 15:33:13;;;;;;;25.70;15.20;;;;;;;;;;5087110;28;20052;-62
2023/10/10 15:35:40;;;;;;;32.10;15.32;;;;;;;;;;5075988;28;20048;-62
2023/10/10 15:38:11;;;;;;;29.98;15.40;;;;;;;;;;5088299;28;20036;-63
2023/10/10 15:40:39;;;;;;;24.33;15.77;;;;;;;;;;5091021;28;20051;-62
2023/10/10 15:43:05;;;;;;;27.00;14.48;;;;;;;;;;5092192;28;20062;-62
2023/10/10 15:45:37;;;;;;;25.13;14.25;;;;;;;;;;5089270;28;20122;-62
2023/10/10 15:48:03;;;;;;;27.35;14.55;;;;;;;;;;5077127;28;20082;-63
2023/10/10 15:50:32;;;;;;;25.08;13.95;;;;;;;;;;5086998;28;20040;-62
2023/10/10 15:52:59;;;;;;;26.15;14.52;;;;;;;;;;5081515;28;20052;-63
2023/10/10 15:55:25;;;;;;;27.00;14.95;;;;;;;;;;5089950;28;20047;-62
2023/10/10 15:57:54;;;;;;;28.17;15.30;;;;;;;;;;5079786;28;20167;-63
2023/10/10 16:00:33;;;;;;;24.25;15.02;;;;;;;;;;5085461;28;20043;-62
2023/10/10 16:02:59;;;;;;;23.05;14.35;;;;;;;;;;5085119;28;20128;-62
2023/10/10 16:05:25;;;;;;;19.45;13.32;;;;;;;;;;5090479;28;20063;-62
2023/10/10 16:07:52;;;;;;;20.25;13.00;;;;;;;;;;5093839;28;20048;-62
2023/10/10 16:10:18;;;;;;;19.75;12.05;;;;;;;;;;5102461;28;20048;-62
2023/10/10 16:12:44;;;;;;;22.02;11.98;;;;;;;;;;5074809;28;20040;-62
2023/10/10 16:15:13;;;;;;;23.60;12.25;;;20.20;99.90;;;;;;5095113;28;20260;-62
2023/10/10 16:17:39;;;;;;;19.85;12.10;;;;;;;;;;5087563;28;20480;-63
2023/10/10 16:20:06;;;;;;;24.00;13.15;;;;;;;;;;5068688;28;20377;-63
2023/10/10 16:22:35;;;;;;;20.73;12.10;;;;;;;;;;5089869;28;20048;-62
2023/10/10 16:25:03;;;;;;;22.90;13.50;;;;;;;;;;5089633;28;20043;-62
2023/10/10 16:27:31;;;;;;;21.35;13.43;;;;;;;;;;5090372;28;20097;-63
2023/10/10 16:29:57;;;;;;;23.58;13.70;;;;;;;;;;5082475;28;20144;-62
2023/10/10 16:32:23;;;;;;;24.05;13.23;;;;;;;;;;5079754;28;20054;-63
2023/10/10 16:34:49;;;;;;;29.13;14.25;;;;;;;;;;5080092;28;20040;-63
2023/10/10 16:37:18;;;;;;;27.73;14.82;;;;;;;;;;5083037;28;20400;-63
2023/10/10 16:39:44;;;;;;;23.15;13.75;;;;;;;;;;5087531;28;20123;-62
2023/10/10 16:42:11;;;;;;;27.42;15.50;;;;;;;;;;5076998;28;20557;-62
2023/10/10 16:44:37;;;;;;;28.02;14.70;;;;;;;;;;5084346;28;20052;-62
2023/10/10 16:47:03;;;;;;;24.10;14.25;;;;;;;;;;5079048;28;20041;-62
2023/10/10 16:49:29;;;;;;;25.38;15.52;;;;;;;;;;5085782;28;20055;-62
2023/10/10 16:51:55;;;;;;;26.52;13.93;;;;;;;;;;5085378;28;20051;-62
2023/10/10 16:54:22;;;;;;;24.35;15.27;;;;;;;;;;5090176;28;20469;-62
2023/10/10 16:56:48;;;;;;;24.83;15.55;;;;;;;;;;5091487;28;20044;-62
2023/10/10 16:59:14;;;;;;;26.27;15.30;;;;;;;;;;5089461;28;20051;-62
2023/10/10 17:01:43;;;;;;;25.42;15.63;;;;;;;;;;5089650;28;20496;-62
2023/10/10 17:04:10;;;;;;;28.08;14.98;;;;;;;;;;5099158;28;20408;-62
2023/10/10 17:06:36;;;;;;;25.60;14.73;;;;;;;;;;5091090;28;20151;-61
2023/10/10 17:09:04;;;;;;;26.45;15.07;;;;;;;;;;5091219;28;20049;-61